createdAt,value
2019-02-22T00:00:51.925Z,101380.41
2019-02-22T00:03:19.681Z,101375.45
2019-02-22T00:05:47.535Z,101378.75
2019-02-22T00:08:15.277Z,101379.23
2019-02-22T00:10:43.200Z,101382.00
2019-02-22T00:13:11.011Z,101390.54
2019-02-22T00:15:38.969Z,101390.00
2019-02-22T00:18:06.748Z,101393.08
2019-02-22T00:20:34.535Z,101390.94
2019-02-22T00:23:02.348Z,101393.36
2019-02-22T00:25:30.297Z,101392.81
2019-02-22T00:27:58.049Z,101389.47
2019-02-22T00:30:26.007Z,101394.16
2019-02-22T00:32:53.789Z,101400.78
2019-02-22T00:35:21.660Z,101396.16
2019-02-22T00:37:49.601Z,101397.97
2019-02-22T00:40:17.319Z,101403.36
2019-02-22T00:42:45.352Z,101403.82
2019-02-22T00:45:13.103Z,101402.77
2019-02-22T00:47:40.835Z,101399.16
2019-02-22T00:50:08.607Z,101396.94
2019-02-22T00:52:36.539Z,101393.28
2019-02-22T00:55:04.537Z,101395.59
2019-02-22T00:57:32.442Z,101400.98
2019-02-22T01:00:00.357Z,101390.13
2019-02-22T01:02:28.445Z,101390.47
2019-02-22T01:04:56.179Z,101391.93
2019-02-22T01:07:23.948Z,101393.28
2019-02-22T01:09:51.711Z,101394.08
2019-02-22T01:12:19.483Z,101394.05
2019-02-22T01:14:47.266Z,101395.70
2019-02-22T01:17:15.196Z,101400.17
2019-02-22T01:19:42.942Z,101402.05
2019-02-22T01:22:10.888Z,101407.52
2019-02-22T01:24:38.664Z,101413.79
2019-02-22T01:27:06.616Z,101416.80
2019-02-22T01:29:34.405Z,101414.67
2019-02-22T01:32:02.391Z,101417.59
2019-02-22T01:34:30.189Z,101420.25
2019-02-22T01:36:58.010Z,101422.67
2019-02-22T01:39:25.799Z,101427.68
2019-02-22T01:41:53.753Z,101429.22
2019-02-22T01:44:22.055Z,101424.21
2019-02-22T01:46:50.031Z,101426.37
2019-02-22T01:49:17.935Z,101433.69
2019-02-22T01:51:45.927Z,101437.20
2019-02-22T01:54:13.675Z,101438.70
2019-02-22T01:56:41.499Z,101436.73
2019-02-22T01:59:09.249Z,101437.84
2019-02-22T02:01:37.456Z,101444.20
2019-02-22T02:04:05.238Z,101449.44
2019-02-22T02:06:33.199Z,101453.13
2019-02-22T02:09:00.929Z,101459.12
2019-02-22T02:11:28.869Z,101467.98
2019-02-22T02:13:56.860Z,101467.87
2019-02-22T02:16:24.652Z,101470.45
2019-02-22T02:18:52.606Z,101474.36
2019-02-22T02:21:20.361Z,101477.64
2019-02-22T02:23:48.108Z,101485.50
2019-02-22T02:26:16.098Z,101491.77
2019-02-22T02:28:44.013Z,101485.30
2019-02-22T02:31:11.932Z,101493.67
2019-02-22T02:33:39.891Z,101487.20
2019-02-22T02:36:07.675Z,101488.95
2019-02-22T02:38:35.596Z,101498.75
2019-02-22T02:41:08.438Z,101493.11
2019-02-22T02:43:33.158Z,101496.95
2019-02-22T02:46:00.961Z,101495.05
2019-02-22T02:48:28.718Z,101498.73
2019-02-22T02:50:56.543Z,101499.94
2019-02-22T02:53:24.483Z,101506.23
2019-02-22T02:55:52.216Z,101504.70
2019-02-22T02:58:20.186Z,101510.39
2019-02-22T03:00:47.935Z,101511.93
2019-02-22T03:03:15.887Z,101517.50
2019-02-22T03:06:01.652Z,101522.61
2019-02-22T03:08:32.948Z,101519.22
2019-02-22T03:11:00.701Z,101521.16
2019-02-22T03:13:28.768Z,101530.57
2019-02-22T03:15:56.530Z,101530.63
2019-02-22T03:18:24.288Z,101537.75
2019-02-22T03:20:52.032Z,101543.82
2019-02-22T03:23:20.000Z,101541.28
2019-02-22T03:25:47.986Z,101545.89
2019-02-22T03:28:15.907Z,101554.59
2019-02-22T03:30:43.655Z,101556.91
2019-02-22T03:33:11.473Z,101564.02
2019-02-22T03:35:39.266Z,101562.56
2019-02-22T03:38:07.038Z,101562.41
2019-02-22T03:40:34.800Z,101563.73
2019-02-22T03:43:02.610Z,101563.75
2019-02-22T03:45:30.358Z,101561.88
2019-02-22T03:47:58.298Z,101566.45
2019-02-22T03:50:26.112Z,101560.48
2019-02-22T03:53:08.828Z,101566.84
2019-02-22T03:55:36.754Z,101573.89
2019-02-22T03:58:04.698Z,101580.33
2019-02-22T04:00:32.681Z,101583.41
2019-02-22T04:03:00.597Z,101591.96
2019-02-22T04:05:28.392Z,101596.09
2019-02-22T04:07:56.390Z,101594.36
2019-02-22T04:10:24.299Z,101604.03
2019-02-22T04:12:52.079Z,101607.11
2019-02-22T04:15:19.840Z,101616.92
2019-02-22T04:17:47.630Z,101624.17
2019-02-22T04:20:15.373Z,101629.70
2019-02-22T04:22:44.337Z,101629.75
2019-02-22T04:25:12.407Z,101632.94
2019-02-22T04:27:40.369Z,101635.50
2019-02-22T04:30:08.701Z,101638.39
2019-02-22T04:32:36.491Z,101644.98
2019-02-22T04:35:04.636Z,101649.69
2019-02-22T04:37:32.453Z,101649.69
2019-02-22T04:40:00.441Z,101652.06
2019-02-22T04:42:28.302Z,101653.05
2019-02-22T04:44:56.035Z,101661.13
2019-02-22T04:47:23.802Z,101660.45
2019-02-22T04:49:51.574Z,101670.40
2019-02-22T04:52:19.337Z,101665.20
2019-02-22T04:54:47.249Z,101674.08
2019-02-22T04:57:15.035Z,101679.00
2019-02-22T04:59:42.950Z,101684.52
2019-02-22T05:02:10.727Z,101682.02
2019-02-22T05:04:38.637Z,101682.54
2019-02-22T05:07:06.425Z,101689.23
2019-02-22T05:09:34.303Z,101695.23
2019-02-22T05:12:10.353Z,101693.75
2019-02-22T05:14:31.747Z,101696.58
2019-02-22T05:16:59.561Z,101698.09
2019-02-22T05:19:27.364Z,101700.66
2019-02-22T05:21:55.120Z,101708.41
2019-02-22T05:24:23.093Z,101713.95
2019-02-22T05:26:50.863Z,101709.28
2019-02-22T05:29:18.795Z,101713.28
2019-02-22T05:31:46.751Z,101720.01
2019-02-22T05:34:14.473Z,101724.36
2019-02-22T05:36:44.254Z,101728.75
2019-02-22T05:39:19.097Z,101725.39
2019-02-22T05:41:44.409Z,101730.73
2019-02-22T05:44:12.392Z,101733.42
2019-02-22T05:46:40.159Z,101736.39
2019-02-22T05:49:08.131Z,101735.09
2019-02-22T05:51:36.030Z,101746.16
2019-02-22T05:54:03.788Z,101744.67
2019-02-22T05:56:31.687Z,101753.91
2019-02-22T05:58:59.449Z,101762.48
2019-02-22T06:01:27.210Z,101773.64
2019-02-22T06:03:54.972Z,101772.42
2019-02-22T06:06:22.740Z,101773.73
2019-02-22T06:08:50.528Z,101778.30
2019-02-22T06:11:18.455Z,101788.91
2019-02-22T06:13:46.235Z,101792.94
2019-02-22T06:16:13.977Z,101792.59
2019-02-22T06:18:41.797Z,101798.00
2019-02-22T06:21:09.591Z,101799.36
2019-02-22T06:23:37.377Z,101807.40
2019-02-22T06:26:05.123Z,101820.34
2019-02-22T06:28:32.879Z,101818.50
2019-02-22T06:31:00.809Z,101831.11
2019-02-22T06:33:28.583Z,101835.13
2019-02-22T06:35:56.394Z,101841.18
2019-02-22T06:38:24.207Z,101841.04
2019-02-22T06:40:52.200Z,101842.52
2019-02-22T06:43:19.919Z,101851.77
2019-02-22T06:45:48.133Z,101858.31
2019-02-22T06:48:15.927Z,101867.20
2019-02-22T06:50:43.687Z,101864.19
2019-02-22T06:53:11.473Z,101867.56
2019-02-22T06:55:39.273Z,101866.89
2019-02-22T06:58:07.362Z,101871.76
2019-02-22T07:00:35.346Z,101874.13
2019-02-22T07:03:03.092Z,101880.83
2019-02-22T07:05:30.862Z,101887.37
2019-02-22T07:07:58.854Z,101891.94
2019-02-22T07:10:26.835Z,101894.61
2019-02-22T07:12:59.007Z,101902.84
2019-02-22T07:15:26.808Z,101904.70
2019-02-22T07:17:54.551Z,101910.23
2019-02-22T07:20:22.342Z,101912.25
2019-02-22T07:22:50.123Z,101921.85
2019-02-22T07:25:17.953Z,101922.36
2019-02-22T07:27:45.805Z,101929.59
2019-02-22T07:30:13.680Z,101929.44
2019-02-22T07:32:41.755Z,101937.84
2019-02-22T07:35:10.004Z,101936.64
2019-02-22T07:37:37.796Z,101948.08
2019-02-22T07:40:05.905Z,101953.11
2019-02-22T07:42:33.667Z,101956.16
2019-02-22T07:45:01.445Z,101969.95
2019-02-22T07:47:29.376Z,101973.30
2019-02-22T07:49:57.195Z,101978.19
2019-02-22T07:52:25.066Z,101986.94
2019-02-22T07:54:52.891Z,101982.72
2019-02-22T07:57:20.894Z,101989.44
2019-02-22T07:59:48.623Z,101993.48
2019-02-22T08:02:16.589Z,101998.36
2019-02-22T08:04:44.384Z,102007.73
2019-02-22T08:07:12.377Z,102013.09
2019-02-22T08:09:43.991Z,102019.48
2019-02-22T08:12:12.080Z,102029.54
2019-02-22T08:14:39.911Z,102033.27
2019-02-22T08:17:07.715Z,102045.90
2019-02-22T08:19:35.483Z,102049.38
2019-02-22T08:22:03.698Z,102058.84
2019-02-22T08:24:31.495Z,102052.27
2019-02-22T08:26:59.269Z,102069.28
2019-02-22T08:29:27.289Z,102066.26
2019-02-22T08:31:55.098Z,102075.31
2019-02-22T08:34:22.828Z,102086.07
2019-02-22T08:36:50.596Z,102091.62
2019-02-22T08:39:18.355Z,102101.39
2019-02-22T08:41:46.153Z,102101.03
2019-02-22T08:44:13.961Z,102107.42
2019-02-22T08:46:41.764Z,102119.17
2019-02-22T08:49:09.519Z,102128.28
2019-02-22T08:51:37.359Z,102129.43
2019-02-22T08:54:05.528Z,102145.37
2019-02-22T08:56:33.325Z,102140.62
2019-02-22T08:59:01.075Z,102146.14
2019-02-22T09:01:28.826Z,102158.57
2019-02-22T09:03:56.557Z,102157.22
2019-02-22T09:06:24.408Z,102160.08
2019-02-22T09:08:52.215Z,102170.56
2019-02-22T09:11:20.042Z,102178.66
2019-02-22T09:13:48.051Z,102182.27
2019-02-22T09:16:15.932Z,102186.41
2019-02-22T09:18:45.281Z,102193.41
2019-02-22T09:21:13.126Z,102203.16
2019-02-22T09:23:40.877Z,102203.11
2019-02-22T09:26:08.702Z,102201.14
2019-02-22T09:28:36.528Z,102206.50
2019-02-22T09:31:04.309Z,102219.71
2019-02-22T09:33:32.198Z,102211.16
2019-02-22T09:35:59.968Z,102217.39
2019-02-22T09:38:27.744Z,102225.66
2019-02-22T09:40:55.534Z,102230.58
2019-02-22T09:43:23.259Z,102235.42
2019-02-22T09:45:51.046Z,102241.19
2019-02-22T09:48:18.809Z,102246.66
2019-02-22T09:50:46.571Z,102248.05
2019-02-22T09:53:14.340Z,102255.55
2019-02-22T09:55:42.126Z,102261.20
2019-02-22T09:58:09.885Z,102264.22
2019-02-22T10:00:37.641Z,102268.98
2019-02-22T10:03:05.404Z,102279.05
2019-02-22T10:05:33.145Z,102278.77
2019-02-22T10:08:00.923Z,102285.17
2019-02-22T10:10:28.676Z,102286.72
2019-02-22T10:12:56.457Z,102288.10
2019-02-22T10:15:24.277Z,102296.74
2019-02-22T10:17:52.041Z,102296.91
2019-02-22T10:20:19.854Z,102315.72
2019-02-22T10:22:47.703Z,102316.11
2019-02-22T10:25:15.561Z,102318.41
2019-02-22T10:27:43.355Z,102322.73
2019-02-22T10:30:11.158Z,102325.72
2019-02-22T10:32:42.843Z,102327.56
2019-02-22T10:35:11.718Z,102334.92
2019-02-22T10:37:39.528Z,102345.55
2019-02-22T10:40:07.461Z,102342.72
2019-02-22T10:42:35.247Z,102350.36
2019-02-22T10:45:03.267Z,102355.45
2019-02-22T10:47:31.031Z,102359.16
2019-02-22T10:49:58.838Z,102368.66
2019-02-22T10:52:26.606Z,102378.00
2019-02-22T10:54:54.357Z,102378.31
2019-02-22T10:57:22.159Z,102377.73
2019-02-22T10:59:49.942Z,102381.58
2019-02-22T11:02:17.777Z,102378.83
2019-02-22T11:04:45.540Z,102392.70
2019-02-22T11:07:13.784Z,102393.59
2019-02-22T11:09:41.576Z,102397.78
2019-02-22T11:12:09.360Z,102399.73
2019-02-22T11:14:37.165Z,102406.66
2019-02-22T11:17:04.964Z,102399.06
2019-02-22T11:19:32.777Z,102406.51
2019-02-22T11:22:00.540Z,102406.60
2019-02-22T11:24:28.373Z,102418.00
2019-02-22T11:26:56.149Z,102423.88
2019-02-22T11:29:23.911Z,102427.95
2019-02-22T11:31:51.932Z,102438.89
2019-02-22T11:34:19.692Z,102450.76
2019-02-22T11:36:47.559Z,102450.04
2019-02-22T11:39:15.331Z,102460.70
2019-02-22T11:41:43.145Z,102464.60
2019-02-22T11:44:12.282Z,102462.30
2019-02-22T11:46:40.363Z,102457.33
2019-02-22T11:49:08.140Z,102469.52
2019-02-22T11:51:36.359Z,102462.89
2019-02-22T11:54:04.103Z,102469.93
2019-02-22T11:56:32.226Z,102472.27
2019-02-22T11:59:00.027Z,102475.25
2019-02-22T12:01:27.913Z,102482.14
2019-02-22T12:03:55.778Z,102485.54
2019-02-22T12:06:23.612Z,102488.53
2019-02-22T12:08:51.469Z,102495.75
2019-02-22T12:11:19.311Z,102500.90
2019-02-22T12:13:47.147Z,102492.77
2019-02-22T12:16:14.957Z,102499.98
2019-02-22T12:18:42.767Z,102503.98
2019-02-22T12:21:10.864Z,102503.61
2019-02-22T12:23:38.658Z,102515.13
2019-02-22T12:26:06.501Z,102522.11
2019-02-22T12:28:34.230Z,102521.27
2019-02-22T12:31:02.397Z,102525.21
2019-02-22T12:33:31.342Z,102524.09
2019-02-22T12:35:59.055Z,102532.98
2019-02-22T12:38:28.250Z,102540.67
2019-02-22T12:40:56.193Z,102542.93
2019-02-22T12:43:23.967Z,102550.20
2019-02-22T12:45:51.692Z,102549.74
2019-02-22T12:48:19.499Z,102554.56
2019-02-22T12:50:47.233Z,102559.79
2019-02-22T12:53:15.015Z,102562.33
2019-02-22T12:55:42.761Z,102564.29
2019-02-22T12:58:10.851Z,102566.59
2019-02-22T13:00:38.671Z,102564.19
2019-02-22T13:03:06.438Z,102569.69
2019-02-22T13:05:34.277Z,102577.73
2019-02-22T13:08:02.056Z,102583.67
2019-02-22T13:10:29.801Z,102599.66
2019-02-22T13:12:57.581Z,102596.92
2019-02-22T13:15:25.361Z,102602.31
2019-02-22T13:17:53.175Z,102610.65
2019-02-22T13:20:20.938Z,102617.55
2019-02-22T13:22:48.774Z,102615.94
2019-02-22T13:25:16.528Z,102619.77
2019-02-22T13:27:44.372Z,102633.32
2019-02-22T13:30:12.244Z,102634.00
2019-02-22T13:32:40.025Z,102634.41
2019-02-22T13:35:10.696Z,102635.19
2019-02-22T13:37:37.804Z,102638.51
2019-02-22T13:40:07.744Z,102645.36
2019-02-22T13:42:35.640Z,102654.59
2019-02-22T13:45:03.775Z,102658.79
2019-02-22T13:47:31.570Z,102664.59
2019-02-22T13:49:59.353Z,102662.95
2019-02-22T13:52:27.207Z,102666.07
2019-02-22T13:54:54.990Z,102670.05
2019-02-22T13:57:22.814Z,102670.39
2019-02-22T13:59:50.613Z,102676.26
2019-02-22T14:02:19.764Z,102686.28
2019-02-22T14:04:47.573Z,102689.36
2019-02-22T14:07:15.356Z,102688.25
2019-02-22T14:09:43.126Z,102694.80
2019-02-22T14:12:10.955Z,102697.20
2019-02-22T14:14:38.717Z,102694.84
2019-02-22T14:17:06.482Z,102696.20
2019-02-22T14:19:34.241Z,102698.66
2019-02-22T14:22:02.026Z,102705.48
2019-02-22T14:24:29.801Z,102715.16
2019-02-22T14:26:57.579Z,102710.27
2019-02-22T14:29:25.348Z,102717.94
2019-02-22T14:31:53.157Z,102713.12
2019-02-22T14:34:20.961Z,102723.58
2019-02-22T14:36:48.852Z,102724.91
2019-02-22T14:39:16.620Z,102727.83
2019-02-22T14:41:45.564Z,102730.00
2019-02-22T14:44:13.341Z,102732.20
2019-02-22T14:46:41.130Z,102745.80
2019-02-22T14:49:08.894Z,102737.20
2019-02-22T14:51:36.628Z,102737.10
2019-02-22T14:54:04.410Z,102740.48
2019-02-22T14:56:32.176Z,102737.45
2019-02-22T14:58:59.956Z,102736.98
2019-02-22T15:01:27.716Z,102745.25
2019-02-22T15:03:55.524Z,102744.36
2019-02-22T15:06:23.310Z,102743.66
2019-02-22T15:08:51.168Z,102738.89
2019-02-22T15:11:19.018Z,102734.66
2019-02-22T15:13:46.875Z,102734.44
2019-02-22T15:16:32.977Z,102739.41
2019-02-22T15:19:00.783Z,102737.68
2019-02-22T15:21:28.551Z,102749.11
2019-02-22T15:23:56.289Z,102752.26
2019-02-22T15:26:24.060Z,102752.77
2019-02-22T15:28:51.861Z,102760.44
2019-02-22T15:31:19.598Z,102768.78
2019-02-22T15:33:47.383Z,102773.14
2019-02-22T15:36:16.102Z,102784.57
2019-02-22T15:38:44.156Z,102790.92
2019-02-22T15:41:12.005Z,102777.78
2019-02-22T15:43:39.861Z,102786.54
2019-02-22T15:46:12.134Z,102787.77
2019-02-22T15:48:37.375Z,102790.45
2019-02-22T15:51:07.251Z,102796.25
2019-02-22T15:53:34.786Z,102795.77
2019-02-22T15:56:02.573Z,102793.71
2019-02-22T15:58:30.329Z,102790.06
2019-02-22T16:00:58.105Z,102799.63
2019-02-22T16:03:28.118Z,102800.55
2019-02-22T16:05:55.913Z,102801.62
2019-02-22T16:08:23.702Z,102811.36
2019-02-22T16:10:51.486Z,102809.98
2019-02-22T16:13:19.273Z,102812.06
2019-02-22T16:15:47.204Z,102815.14
2019-02-22T16:18:15.029Z,102824.03
2019-02-22T16:20:42.843Z,102826.58
2019-02-22T16:23:10.613Z,102831.23
2019-02-22T16:25:38.452Z,102838.02
2019-02-22T16:28:06.181Z,102844.47
2019-02-22T16:30:35.393Z,102840.89
2019-02-22T16:33:03.234Z,102842.50
2019-02-22T16:35:31.001Z,102846.38
2019-02-22T16:37:58.781Z,102843.78
2019-02-22T16:40:26.544Z,102840.46
2019-02-22T16:42:54.292Z,102846.93
2019-02-22T16:45:22.198Z,102855.34
2019-02-22T16:47:49.958Z,102851.23
2019-02-22T16:50:17.713Z,102856.02
2019-02-22T16:52:45.582Z,102856.02
2019-02-22T16:55:13.874Z,102852.56
2019-02-22T16:57:41.628Z,102866.00
2019-02-22T17:00:11.567Z,102860.59
2019-02-22T17:02:39.327Z,102862.88
2019-02-22T17:05:08.976Z,102867.63
2019-02-22T17:07:36.735Z,102870.34
2019-02-22T17:10:05.391Z,102863.20
2019-02-22T17:12:33.128Z,102870.41
2019-02-22T17:15:01.045Z,102867.53
2019-02-22T17:17:28.804Z,102866.48
2019-02-22T17:19:56.581Z,102873.33
2019-02-22T17:22:24.352Z,102875.55
2019-02-22T17:24:52.301Z,102873.29
2019-02-22T17:27:20.089Z,102886.28
2019-02-22T17:29:47.835Z,102880.55
2019-02-22T17:32:15.612Z,102882.59
2019-02-22T17:34:45.477Z,102893.33
2019-02-22T17:37:13.386Z,102902.75
2019-02-22T17:39:41.294Z,102904.98
2019-02-22T17:42:09.249Z,102910.63
2019-02-22T17:44:37.019Z,102924.32
2019-02-22T17:47:06.578Z,102927.82
2019-02-22T17:49:34.670Z,102940.31
2019-02-22T17:52:02.599Z,102948.73
2019-02-22T17:54:30.362Z,102948.20
2019-02-22T17:56:58.167Z,102948.55
2019-02-22T17:59:28.304Z,102945.02
2019-02-22T18:01:56.253Z,102939.59
2019-02-22T18:04:24.045Z,102932.07
2019-02-22T18:06:51.991Z,102933.84
2019-02-22T18:09:19.967Z,102928.53
2019-02-22T18:11:47.880Z,102928.89
2019-02-22T18:14:15.660Z,102929.25
2019-02-22T18:16:44.576Z,102927.83
2019-02-22T18:19:12.320Z,102930.92
2019-02-22T18:21:40.054Z,102937.73
2019-02-22T18:24:07.863Z,102940.69
2019-02-22T18:26:37.683Z,102944.25
2019-02-22T18:29:05.290Z,102953.17
2019-02-22T18:31:33.182Z,102958.97
2019-02-22T18:34:00.938Z,102967.42
2019-02-22T18:36:28.764Z,102966.70
2019-02-22T18:38:56.577Z,102962.09
2019-02-22T18:41:24.343Z,102966.74
2019-02-22T18:43:52.106Z,102976.45
2019-02-22T18:46:20.303Z,102979.36
2019-02-22T18:48:48.016Z,102977.06
2019-02-22T18:51:15.855Z,102982.62
2019-02-22T18:53:43.588Z,102988.42
2019-02-22T18:56:11.385Z,102983.12
2019-02-22T18:58:39.144Z,102973.94
2019-02-22T19:01:06.954Z,102972.23
2019-02-22T19:03:34.701Z,102975.67
2019-02-22T19:06:02.513Z,102987.05
2019-02-22T19:08:32.637Z,102998.96
2019-02-22T19:11:00.635Z,102993.03
2019-02-22T19:13:28.429Z,102985.63
2019-02-22T19:15:56.175Z,102984.76
2019-02-22T19:18:23.960Z,102985.63
2019-02-22T19:20:51.779Z,102971.97
2019-02-22T19:23:19.542Z,102976.09
2019-02-22T19:25:47.355Z,102973.22
2019-02-22T19:28:15.871Z,102963.44
2019-02-22T19:30:43.681Z,102972.63
2019-02-22T19:33:11.432Z,102980.73
2019-02-22T19:35:39.238Z,102987.84
2019-02-22T19:38:07.002Z,102991.19
2019-02-22T19:40:34.814Z,102988.75
2019-02-22T19:43:02.596Z,102989.95
2019-02-22T19:45:30.374Z,102990.97
2019-02-22T19:47:58.184Z,103001.41
2019-02-22T19:50:26.009Z,103001.81
2019-02-22T19:52:53.790Z,103003.34
2019-02-22T19:55:21.680Z,103004.97
2019-02-22T19:57:49.456Z,102997.16
2019-02-22T20:00:17.241Z,102998.48
2019-02-22T20:02:45.073Z,102999.75
2019-02-22T20:05:13.076Z,103002.77
2019-02-22T20:07:42.522Z,102998.02
2019-02-22T20:10:17.890Z,102993.66
2019-02-22T20:12:41.860Z,102997.28
2019-02-22T20:15:11.657Z,103000.77
2019-02-22T20:17:40.334Z,103006.86
2019-02-22T20:20:10.961Z,103008.18
2019-02-22T20:22:39.624Z,103010.27
2019-02-22T20:25:07.484Z,103007.14
2019-02-22T20:27:35.335Z,103017.75
2019-02-22T20:30:03.299Z,103024.30
2019-02-22T20:32:31.141Z,103032.56
2019-02-22T20:34:58.966Z,103037.67
2019-02-22T20:37:26.776Z,103038.16
2019-02-22T20:39:54.613Z,103044.80
2019-02-22T20:42:22.477Z,103053.51
2019-02-22T20:44:50.272Z,103058.64
2019-02-22T20:47:18.152Z,103052.66
2019-02-22T20:49:45.981Z,103060.63
2019-02-22T20:52:13.853Z,103062.70
2019-02-22T20:54:41.652Z,103062.65
2019-02-22T20:57:09.453Z,103069.10
2019-02-22T20:59:37.359Z,103064.68
2019-02-22T21:02:05.180Z,103060.70
2019-02-22T21:04:32.989Z,103058.52
2019-02-22T21:07:00.798Z,103063.54
2019-02-22T21:09:28.634Z,103057.34
2019-02-22T21:11:57.163Z,103054.34
2019-02-22T21:14:25.027Z,103058.69
2019-02-22T21:16:52.861Z,103060.98
2019-02-22T21:19:20.709Z,103062.92
2019-02-22T21:21:48.502Z,103065.73
2019-02-22T21:24:16.311Z,103072.65
2019-02-22T21:26:44.117Z,103065.24
2019-02-22T21:29:11.934Z,103059.63
2019-02-22T21:31:39.825Z,103063.30
2019-02-22T21:34:07.641Z,103064.22
2019-02-22T21:36:35.438Z,103065.83
2019-02-22T21:39:03.840Z,103064.59
2019-02-22T21:41:31.612Z,103066.03
2019-02-22T21:43:59.410Z,103069.70
2019-02-22T21:46:28.870Z,103068.55
2019-02-22T21:48:56.773Z,103078.11
2019-02-22T21:51:24.524Z,103075.36
2019-02-22T21:53:52.312Z,103086.57
2019-02-22T21:56:20.084Z,103087.22
2019-02-22T21:58:48.855Z,103089.09
2019-02-22T22:01:16.852Z,103090.75
2019-02-22T22:03:44.618Z,103092.34
2019-02-22T22:06:12.434Z,103092.80
2019-02-22T22:08:40.218Z,103091.70
2019-02-22T22:11:08.040Z,103091.07
2019-02-22T22:13:35.837Z,103095.91
2019-02-22T22:16:03.671Z,103104.02
2019-02-22T22:18:38.508Z,103102.66
2019-02-22T22:21:01.179Z,103116.03
2019-02-22T22:23:28.967Z,103119.92
2019-02-22T22:25:56.738Z,103118.80
2019-02-22T22:28:24.525Z,103117.27
2019-02-22T22:30:52.341Z,103122.31
2019-02-22T22:33:20.116Z,103128.23
2019-02-22T22:35:47.908Z,103127.52
2019-02-22T22:38:15.695Z,103120.53
2019-02-22T22:40:43.463Z,103128.17
2019-02-22T22:43:11.686Z,103133.55
2019-02-22T22:45:39.517Z,103140.78
2019-02-22T22:48:07.291Z,103148.80
2019-02-22T22:50:35.064Z,103154.36
2019-02-22T22:53:02.845Z,103153.84
2019-02-22T22:55:30.632Z,103150.30
2019-02-22T22:57:58.401Z,103151.87
2019-02-22T23:00:46.639Z,103158.31
2019-02-22T23:03:14.526Z,103158.08
2019-02-22T23:05:42.325Z,103151.68
2019-02-22T23:08:10.077Z,103164.54
2019-02-22T23:10:37.886Z,103167.08
2019-02-22T23:13:05.632Z,103163.22
2019-02-22T23:15:33.424Z,103159.15
2019-02-22T23:18:01.196Z,103167.48
2019-02-22T23:20:28.971Z,103167.57
2019-02-22T23:22:56.717Z,103168.38
2019-02-22T23:25:24.519Z,103164.18
2019-02-22T23:27:52.277Z,103164.05
2019-02-22T23:30:20.002Z,103160.01
2019-02-22T23:32:47.796Z,103163.98
2019-02-22T23:35:15.550Z,103159.08
2019-02-22T23:37:43.394Z,103161.10
2019-02-22T23:40:11.171Z,103155.51
2019-02-22T23:42:38.968Z,103150.66
2019-02-22T23:45:06.794Z,103149.17
2019-02-22T23:47:34.644Z,103166.57
2019-02-22T23:50:02.473Z,103158.64
2019-02-22T23:52:30.272Z,103148.27
2019-02-22T23:54:58.008Z,103143.11
2019-02-22T23:57:26.566Z,103143.91
2019-02-22T23:59:54.306Z,103145.48
